sensor_id;sensor_type;location;lat;lon;timestamp;P1;durP1;ratioP1;P2;durP2;ratioP2
787;SDS011;16074;42.708;23.312;2023-02-10T00:01:33;21.30;;;13.45;;
787;SDS011;16074;42.708;23.312;2023-02-10T00:04:03;20.80;;;14.07;;
787;SDS011;16074;42.708;23.312;2023-02-10T00:06:31;19.83;;;12.77;;
787;SDS011;16074;42.708;23.312;2023-02-10T00:09:00;23.05;;;15.23;;
787;SDS011;16074;42.708;23.312;2023-02-10T00:11:30;22.52;;;15.40;;
787;SDS011;16074;42.708;23.312;2023-02-10T00:14:16;21.02;;;14.45;;
787;SDS011;16074;42.708;23.312;2023-02-10T00:16:48;20.90;;;14.15;;
787;SDS011;16074;42.708;23.312;2023-02-10T00:19:21;22.30;;;15.82;;
787;SDS011;16074;42.708;23.312;2023-02-10T00:21:52;25.08;;;15.30;;
787;SDS011;16074;42.708;23.312;2023-02-10T00:24:20;22.77;;;15.27;;
787;SDS011;16074;42.708;23.312;2023-02-10T00:26:49;24.33;;;16.58;;
787;SDS011;16074;42.708;23.312;2023-02-10T00:29:18;25.15;;;14.20;;
787;SDS011;16074;42.708;23.312;2023-02-10T00:31:46;24.73;;;15.85;;
787;SDS011;16074;42.708;23.312;2023-02-10T00:34:15;23.27;;;14.98;;
787;SDS011;16074;42.708;23.312;2023-02-10T00:36:48;23.58;;;15.85;;
787;SDS011;16074;42.708;23.312;2023-02-10T00:39:16;29.50;;;16.50;;
787;SDS011;16074;42.708;23.312;2023-02-10T00:41:45;23.75;;;16.42;;
787;SDS011;16074;42.708;23.312;2023-02-10T00:44:13;21.38;;;16.80;;
787;SDS011;16074;42.708;23.312;2023-02-10T00:46:41;20.52;;;14.77;;
787;SDS011;16074;42.708;23.312;2023-02-10T00:49:10;23.27;;;14.88;;
787;SDS011;16074;42.708;23.312;2023-02-10T00:51:38;26.40;;;15.90;;
787;SDS011;16074;42.708;23.312;2023-02-10T00:54:08;29.05;;;17.80;;
787;SDS011;16074;42.708;23.312;2023-02-10T00:56:39;23.25;;;16.45;;
787;SDS011;16074;42.708;23.312;2023-02-10T00:59:08;24.10;;;17.08;;
787;SDS011;16074;42.708;23.312;2023-02-10T01:01:36;21.73;;;15.27;;
787;SDS011;16074;42.708;23.312;2023-02-10T01:04:05;24.80;;;17.63;;
787;SDS011;16074;42.708;23.312;2023-02-10T01:06:33;21.17;;;15.75;;
787;SDS011;16074;42.708;23.312;2023-02-10T01:09:03;34.08;;;18.20;;
787;SDS011;16074;42.708;23.312;2023-02-10T01:11:33;24.65;;;15.88;;
787;SDS011;16074;42.708;23.312;2023-02-10T01:14:02;27.60;;;18.15;;
787;SDS011;16074;42.708;23.312;2023-02-10T01:16:31;26.83;;;18.48;;
787;SDS011;16074;42.708;23.312;2023-02-10T01:18:59;28.92;;;18.17;;
787;SDS011;16074;42.708;23.312;2023-02-10T01:21:29;24.25;;;16.80;;
787;SDS011;16074;42.708;23.312;2023-02-10T01:23:58;28.02;;;17.75;;
787;SDS011;16074;42.708;23.312;2023-02-10T01:26:30;33.28;;;17.58;;
787;SDS011;16074;42.708;23.312;2023-02-10T01:28:59;35.70;;;19.80;;
787;SDS011;16074;42.708;23.312;2023-02-10T01:31:28;29.23;;;17.80;;
787;SDS011;16074;42.708;23.312;2023-02-10T01:33:56;29.83;;;17.98;;
787;SDS011;16074;42.708;23.312;2023-02-10T01:36:25;32.88;;;18.15;;
787;SDS011;16074;42.708;23.312;2023-02-10T01:38:53;32.10;;;19.17;;
787;SDS011;16074;42.708;23.312;2023-02-10T01:41:22;26.52;;;17.52;;
787;SDS011;16074;42.708;23.312;2023-02-10T01:43:52;28.98;;;20.33;;
787;SDS011;16074;42.708;23.312;2023-02-10T01:46:24;33.85;;;19.42;;
787;SDS011;16074;42.708;23.312;2023-02-10T01:48:53;28.08;;;18.10;;
787;SDS011;16074;42.708;23.312;2023-02-10T01:51:24;22.85;;;16.25;;
787;SDS011;16074;42.708;23.312;2023-02-10T01:53:58;31.20;;;19.20;;
787;SDS011;16074;42.708;23.312;2023-02-10T01:56:27;28.50;;;18.00;;
787;SDS011;16074;42.708;23.312;2023-02-10T01:58:55;30.42;;;18.73;;
787;SDS011;16074;42.708;23.312;2023-02-10T02:01:25;31.30;;;19.95;;
787;SDS011;16074;42.708;23.312;2023-02-10T02:03:53;27.65;;;18.65;;
787;SDS011;16074;42.708;23.312;2023-02-10T02:06:22;28.60;;;19.00;;
787;SDS011;16074;42.708;23.312;2023-02-10T02:08:51;33.00;;;20.60;;
787;SDS011;16074;42.708;23.312;2023-02-10T02:11:20;34.28;;;22.30;;
787;SDS011;16074;42.708;23.312;2023-02-10T02:14:02;34.22;;;21.25;;
787;SDS011;16074;42.708;23.312;2023-02-10T02:16:46;36.60;;;22.67;;
787;SDS011;16074;42.708;23.312;2023-02-10T02:19:29;31.17;;;22.38;;
787;SDS011;16074;42.708;23.312;2023-02-10T02:22:22;34.75;;;22.60;;
787;SDS011;16074;42.708;23.312;2023-02-10T02:25:05;43.38;;;24.10;;
787;SDS011;16074;42.708;23.312;2023-02-10T02:27:50;41.85;;;22.88;;
787;SDS011;16074;42.708;23.312;2023-02-10T02:30:44;30.75;;;20.33;;
787;SDS011;16074;42.708;23.312;2023-02-10T02:33:25;28.95;;;21.10;;
787;SDS011;16074;42.708;23.312;2023-02-10T02:36:00;31.02;;;19.48;;
787;SDS011;16074;42.708;23.312;2023-02-10T02:38:36;28.98;;;16.55;;
787;SDS011;16074;42.708;23.312;2023-02-10T02:41:06;27.13;;;17.20;;
787;SDS011;16074;42.708;23.312;2023-02-10T02:43:35;22.67;;;14.23;;
787;SDS011;16074;42.708;23.312;2023-02-10T02:46:05;24.35;;;14.00;;
787;SDS011;16074;42.708;23.312;2023-02-10T02:48:48;30.15;;;13.55;;
787;SDS011;16074;42.708;23.312;2023-02-10T02:51:29;20.52;;;13.10;;
787;SDS011;16074;42.708;23.312;2023-02-10T02:54:13;14.13;;;10.48;;
787;SDS011;16074;42.708;23.312;2023-02-10T02:56:49;23.35;;;13.75;;
787;SDS011;16074;42.708;23.312;2023-02-10T02:59:26;17.10;;;12.50;;
787;SDS011;16074;42.708;23.312;2023-02-10T03:02:01;21.48;;;12.45;;
787;SDS011;16074;42.708;23.312;2023-02-10T03:04:34;19.30;;;12.82;;
787;SDS011;16074;42.708;23.312;2023-02-10T03:07:04;18.58;;;12.30;;
787;SDS011;16074;42.708;23.312;2023-02-10T03:09:32;16.98;;;13.27;;
787;SDS011;16074;42.708;23.312;2023-02-10T03:12:01;15.60;;;11.00;;
787;SDS011;16074;42.708;23.312;2023-02-10T03:14:29;13.25;;;10.70;;
787;SDS011;16074;42.708;23.312;2023-02-10T03:16:58;18.70;;;10.73;;
787;SDS011;16074;42.708;23.312;2023-02-10T03:19:26;17.98;;;10.90;;
787;SDS011;16074;42.708;23.312;2023-02-10T03:21:56;23.25;;;11.55;;
787;SDS011;16074;42.708;23.312;2023-02-10T03:24:24;18.02;;;12.68;;
787;SDS011;16074;42.708;23.312;2023-02-10T03:26:52;21.33;;;11.40;;
787;SDS011;16074;42.708;23.312;2023-02-10T03:29:20;22.35;;;12.80;;
787;SDS011;16074;42.708;23.312;2023-02-10T03:31:50;16.08;;;13.25;;
787;SDS011;16074;42.708;23.312;2023-02-10T03:34:18;19.77;;;14.40;;
787;SDS011;16074;42.708;23.312;2023-02-10T03:36:47;22.63;;;13.73;;
787;SDS011;16074;42.708;23.312;2023-02-10T03:39:16;21.90;;;15.30;;
787;SDS011;16074;42.708;23.312;2023-02-10T03:41:45;24.83;;;16.00;;
787;SDS011;16074;42.708;23.312;2023-02-10T03:44:13;21.13;;;15.00;;
787;SDS011;16074;42.708;23.312;2023-02-10T03:46:41;25.27;;;15.07;;
787;SDS011;16074;42.708;23.312;2023-02-10T03:49:09;28.23;;;17.27;;
787;SDS011;16074;42.708;23.312;2023-02-10T03:51:38;24.13;;;16.00;;
787;SDS011;16074;42.708;23.312;2023-02-10T03:54:06;22.55;;;15.07;;
787;SDS011;16074;42.708;23.312;2023-02-10T03:56:35;36.13;;;19.40;;
787;SDS011;16074;42.708;23.312;2023-02-10T03:59:04;29.48;;;19.00;;
787;SDS011;16074;42.708;23.312;2023-02-10T04:01:33;32.50;;;18.25;;
787;SDS011;16074;42.708;23.312;2023-02-10T04:04:01;36.75;;;19.85;;
787;SDS011;16074;42.708;23.312;2023-02-10T04:06:30;27.98;;;20.20;;
787;SDS011;16074;42.708;23.312;2023-02-10T04:08:59;32.33;;;19.30;;
787;SDS011;16074;42.708;23.312;2023-02-10T04:11:27;30.58;;;18.25;;
787;SDS011;16074;42.708;23.312;2023-02-10T04:13:57;28.55;;;19.13;;
787;SDS011;16074;42.708;23.312;2023-02-10T04:16:25;35.58;;;19.45;;
787;SDS011;16074;42.708;23.312;2023-02-10T04:18:54;30.83;;;17.90;;
787;SDS011;16074;42.708;23.312;2023-02-10T04:21:22;32.78;;;19.98;;
787;SDS011;16074;42.708;23.312;2023-02-10T04:23:51;34.55;;;18.60;;
787;SDS011;16074;42.708;23.312;2023-02-10T04:26:20;36.10;;;20.50;;
787;SDS011;16074;42.708;23.312;2023-02-10T04:28:49;37.70;;;21.10;;
787;SDS011;16074;42.708;23.312;2023-02-10T04:31:19;34.35;;;20.63;;
787;SDS011;16074;42.708;23.312;2023-02-10T04:33:47;31.50;;;20.38;;
787;SDS011;16074;42.708;23.312;2023-02-10T04:36:16;46.00;;;24.25;;
787;SDS011;16074;42.708;23.312;2023-02-10T04:38:44;31.33;;;20.60;;
787;SDS011;16074;42.708;23.312;2023-02-10T04:41:12;39.22;;;22.65;;
787;SDS011;16074;42.708;23.312;2023-02-10T04:43:40;37.83;;;20.58;;
787;SDS011;16074;42.708;23.312;2023-02-10T04:46:09;30.50;;;18.08;;
787;SDS011;16074;42.708;23.312;2023-02-10T04:48:38;35.53;;;21.83;;
787;SDS011;16074;42.708;23.312;2023-02-10T04:51:07;31.13;;;19.58;;
787;SDS011;16074;42.708;23.312;2023-02-10T04:53:36;30.50;;;18.10;;
787;SDS011;16074;42.708;23.312;2023-02-10T04:56:05;27.77;;;17.45;;
787;SDS011;16074;42.708;23.312;2023-02-10T04:58:33;37.45;;;19.35;;
787;SDS011;16074;42.708;23.312;2023-02-10T05:01:02;24.88;;;16.98;;
787;SDS011;16074;42.708;23.312;2023-02-10T05:03:31;26.73;;;17.63;;
787;SDS011;16074;42.708;23.312;2023-02-10T05:06:04;23.25;;;14.43;;
787;SDS011;16074;42.708;23.312;2023-02-10T05:08:35;24.77;;;16.45;;
787;SDS011;16074;42.708;23.312;2023-02-10T05:11:07;24.63;;;16.13;;
787;SDS011;16074;42.708;23.312;2023-02-10T05:13:35;29.98;;;17.00;;
787;SDS011;16074;42.708;23.312;2023-02-10T05:16:04;25.23;;;16.73;;
787;SDS011;16074;42.708;23.312;2023-02-10T05:18:33;26.20;;;17.70;;
787;SDS011;16074;42.708;23.312;2023-02-10T05:21:03;28.75;;;18.70;;
787;SDS011;16074;42.708;23.312;2023-02-10T05:23:33;33.95;;;20.60;;
787;SDS011;16074;42.708;23.312;2023-02-10T05:26:02;30.08;;;20.90;;
787;SDS011;16074;42.708;23.312;2023-02-10T05:28:30;40.28;;;24.55;;
787;SDS011;16074;42.708;23.312;2023-02-10T05:31:00;43.15;;;27.23;;
787;SDS011;16074;42.708;23.312;2023-02-10T05:33:30;38.88;;;28.95;;
787;SDS011;16074;42.708;23.312;2023-02-10T05:35:58;56.47;;;32.58;;
787;SDS011;16074;42.708;23.312;2023-02-10T05:38:28;56.70;;;34.70;;
787;SDS011;16074;42.708;23.312;2023-02-10T05:40:56;49.00;;;29.25;;
787;SDS011;16074;42.708;23.312;2023-02-10T05:43:24;49.33;;;29.05;;
787;SDS011;16074;42.708;23.312;2023-02-10T05:45:53;44.63;;;30.30;;
787;SDS011;16074;42.708;23.312;2023-02-10T05:48:21;41.28;;;27.20;;
787;SDS011;16074;42.708;23.312;2023-02-10T05:50:49;47.63;;;29.98;;
787;SDS011;16074;42.708;23.312;2023-02-10T05:53:18;46.00;;;27.65;;
787;SDS011;16074;42.708;23.312;2023-02-10T05:55:48;51.42;;;29.80;;
787;SDS011;16074;42.708;23.312;2023-02-10T05:58:16;41.58;;;28.23;;
787;SDS011;16074;42.708;23.312;2023-02-10T06:00:44;46.60;;;29.60;;
787;SDS011;16074;42.708;23.312;2023-02-10T06:03:12;44.00;;;29.75;;
787;SDS011;16074;42.708;23.312;2023-02-10T06:05:41;42.13;;;27.73;;
787;SDS011;16074;42.708;23.312;2023-02-10T06:08:12;39.45;;;24.70;;
787;SDS011;16074;42.708;23.312;2023-02-10T06:10:40;48.67;;;28.45;;
787;SDS011;16074;42.708;23.312;2023-02-10T06:13:10;41.28;;;24.63;;
787;SDS011;16074;42.708;23.312;2023-02-10T06:15:38;41.22;;;24.90;;
787;SDS011;16074;42.708;23.312;2023-02-10T06:18:07;36.55;;;22.75;;
787;SDS011;16074;42.708;23.312;2023-02-10T06:20:35;32.97;;;24.27;;
787;SDS011;16074;42.708;23.312;2023-02-10T06:23:03;35.40;;;21.75;;
787;SDS011;16074;42.708;23.312;2023-02-10T06:25:32;26.17;;;19.65;;
787;SDS011;16074;42.708;23.312;2023-02-10T06:28:02;28.20;;;20.92;;
787;SDS011;16074;42.708;23.312;2023-02-10T06:30:32;36.50;;;20.33;;
787;SDS011;16074;42.708;23.312;2023-02-10T06:33:01;29.35;;;20.42;;
787;SDS011;16074;42.708;23.312;2023-02-10T06:35:29;29.25;;;20.58;;
787;SDS011;16074;42.708;23.312;2023-02-10T06:37:57;40.10;;;22.40;;
787;SDS011;16074;42.708;23.312;2023-02-10T06:40:26;33.05;;;20.67;;
787;SDS011;16074;42.708;23.312;2023-02-10T06:42:54;31.00;;;20.75;;
787;SDS011;16074;42.708;23.312;2023-02-10T06:45:23;27.70;;;18.15;;
787;SDS011;16074;42.708;23.312;2023-02-10T06:47:52;22.27;;;15.93;;
787;SDS011;16074;42.708;23.312;2023-02-10T06:50:21;22.70;;;15.40;;
787;SDS011;16074;42.708;23.312;2023-02-10T06:52:49;25.38;;;16.45;;
787;SDS011;16074;42.708;23.312;2023-02-10T06:55:17;34.55;;;19.60;;
787;SDS011;16074;42.708;23.312;2023-02-10T06:57:46;35.28;;;21.33;;
787;SDS011;16074;42.708;23.312;2023-02-10T07:00:14;34.08;;;20.95;;
787;SDS011;16074;42.708;23.312;2023-02-10T07:02:43;30.27;;;21.20;;
787;SDS011;16074;42.708;23.312;2023-02-10T07:05:16;34.88;;;20.60;;
787;SDS011;16074;42.708;23.312;2023-02-10T07:07:44;31.23;;;22.50;;
787;SDS011;16074;42.708;23.312;2023-02-10T07:10:13;42.63;;;23.98;;
787;SDS011;16074;42.708;23.312;2023-02-10T07:12:41;41.78;;;27.05;;
787;SDS011;16074;42.708;23.312;2023-02-10T07:15:09;36.13;;;23.42;;
787;SDS011;16074;42.708;23.312;2023-02-10T07:17:37;34.63;;;22.95;;
787;SDS011;16074;42.708;23.312;2023-02-10T07:20:06;32.47;;;22.65;;
787;SDS011;16074;42.708;23.312;2023-02-10T07:22:36;35.35;;;24.27;;
787;SDS011;16074;42.708;23.312;2023-02-10T07:25:04;36.50;;;23.60;;
787;SDS011;16074;42.708;23.312;2023-02-10T07:27:33;37.88;;;25.98;;
787;SDS011;16074;42.708;23.312;2023-02-10T07:30:01;38.70;;;26.75;;
787;SDS011;16074;42.708;23.312;2023-02-10T07:32:29;41.42;;;28.02;;
787;SDS011;16074;42.708;23.312;2023-02-10T07:34:58;42.25;;;28.05;;
787;SDS011;16074;42.708;23.312;2023-02-10T07:37:26;36.17;;;29.30;;
787;SDS011;16074;42.708;23.312;2023-02-10T07:39:57;33.10;;;23.50;;
787;SDS011;16074;42.708;23.312;2023-02-10T07:42:25;36.90;;;27.80;;
787;SDS011;16074;42.708;23.312;2023-02-10T07:45:09;50.03;;;29.88;;
787;SDS011;16074;42.708;23.312;2023-02-10T07:47:37;52.67;;;30.80;;
787;SDS011;16074;42.708;23.312;2023-02-10T07:50:05;54.53;;;31.30;;
787;SDS011;16074;42.708;23.312;2023-02-10T07:52:34;47.75;;;32.58;;
787;SDS011;16074;42.708;23.312;2023-02-10T07:55:04;50.63;;;33.88;;
787;SDS011;16074;42.708;23.312;2023-02-10T07:57:33;42.92;;;29.25;;
787;SDS011;16074;42.708;23.312;2023-02-10T08:00:01;32.03;;;23.38;;
787;SDS011;16074;42.708;23.312;2023-02-10T08:02:38;32.38;;;23.30;;
787;SDS011;16074;42.708;23.312;2023-02-10T08:05:07;36.47;;;26.80;;
787;SDS011;16074;42.708;23.312;2023-02-10T08:07:35;39.03;;;23.70;;
787;SDS011;16074;42.708;23.312;2023-02-10T08:10:05;33.55;;;23.73;;
787;SDS011;16074;42.708;23.312;2023-02-10T08:12:34;38.00;;;24.80;;
787;SDS011;16074;42.708;23.312;2023-02-10T08:15:02;36.20;;;22.77;;
787;SDS011;16074;42.708;23.312;2023-02-10T08:17:31;36.15;;;24.55;;
787;SDS011;16074;42.708;23.312;2023-02-10T08:19:59;31.25;;;21.20;;
787;SDS011;16074;42.708;23.312;2023-02-10T08:22:28;32.42;;;23.20;;
787;SDS011;16074;42.708;23.312;2023-02-10T08:24:56;32.33;;;22.15;;
787;SDS011;16074;42.708;23.312;2023-02-10T08:27:25;31.05;;;23.98;;
787;SDS011;16074;42.708;23.312;2023-02-10T08:29:55;35.05;;;21.45;;
787;SDS011;16074;42.708;23.312;2023-02-10T08:32:23;31.25;;;21.52;;
787;SDS011;16074;42.708;23.312;2023-02-10T08:34:52;27.88;;;22.60;;
787;SDS011;16074;42.708;23.312;2023-02-10T08:37:20;29.85;;;21.25;;
787;SDS011;16074;42.708;23.312;2023-02-10T08:39:49;29.02;;;22.23;;
787;SDS011;16074;42.708;23.312;2023-02-10T08:42:17;37.28;;;21.63;;
787;SDS011;16074;42.708;23.312;2023-02-10T08:44:47;28.73;;;22.23;;
787;SDS011;16074;42.708;23.312;2023-02-10T08:47:15;34.53;;;22.35;;
787;SDS011;16074;42.708;23.312;2023-02-10T08:49:44;29.55;;;22.17;;
787;SDS011;16074;42.708;23.312;2023-02-10T08:52:12;35.50;;;21.00;;
787;SDS011;16074;42.708;23.312;2023-02-10T08:54:40;26.48;;;21.42;;
787;SDS011;16074;42.708;23.312;2023-02-10T08:57:08;28.95;;;21.25;;
787;SDS011;16074;42.708;23.312;2023-02-10T08:59:37;31.55;;;23.92;;
787;SDS011;16074;42.708;23.312;2023-02-10T09:02:08;30.33;;;23.48;;
787;SDS011;16074;42.708;23.312;2023-02-10T09:04:38;32.92;;;22.10;;
787;SDS011;16074;42.708;23.312;2023-02-10T09:07:06;29.25;;;22.77;;
787;SDS011;16074;42.708;23.312;2023-02-10T09:09:37;31.40;;;22.13;;
787;SDS011;16074;42.708;23.312;2023-02-10T09:12:06;26.33;;;20.65;;
787;SDS011;16074;42.708;23.312;2023-02-10T09:14:37;25.85;;;21.42;;
787;SDS011;16074;42.708;23.312;2023-02-10T09:17:08;27.63;;;21.67;;
787;SDS011;16074;42.708;23.312;2023-02-10T09:19:36;28.88;;;21.05;;
787;SDS011;16074;42.708;23.312;2023-02-10T09:22:06;29.98;;;22.83;;
787;SDS011;16074;42.708;23.312;2023-02-10T09:24:34;27.17;;;21.90;;
787;SDS011;16074;42.708;23.312;2023-02-10T09:27:02;34.72;;;24.38;;
787;SDS011;16074;42.708;23.312;2023-02-10T09:29:30;29.85;;;21.73;;
787;SDS011;16074;42.708;23.312;2023-02-10T09:31:59;31.60;;;22.50;;
787;SDS011;16074;42.708;23.312;2023-02-10T09:34:28;33.30;;;22.10;;
787;SDS011;16074;42.708;23.312;2023-02-10T09:36:58;33.50;;;22.50;;
787;SDS011;16074;42.708;23.312;2023-02-10T09:39:28;34.50;;;23.55;;
787;SDS011;16074;42.708;23.312;2023-02-10T09:41:57;29.25;;;22.20;;
787;SDS011;16074;42.708;23.312;2023-02-10T09:44:35;27.05;;;22.90;;
787;SDS011;16074;42.708;23.312;2023-02-10T09:47:13;32.13;;;23.42;;
787;SDS011;16074;42.708;23.312;2023-02-10T09:50:10;26.42;;;22.45;;
787;SDS011;16074;42.708;23.312;2023-02-10T09:52:52;31.63;;;23.23;;
787;SDS011;16074;42.708;23.312;2023-02-10T09:55:29;31.70;;;23.30;;
787;SDS011;16074;42.708;23.312;2023-02-10T09:58:00;32.65;;;23.40;;
787;SDS011;16074;42.708;23.312;2023-02-10T10:00:34;28.48;;;23.30;;
787;SDS011;16074;42.708;23.312;2023-02-10T10:03:07;29.70;;;22.35;;
787;SDS011;16074;42.708;23.312;2023-02-10T10:05:44;30.15;;;23.10;;
787;SDS011;16074;42.708;23.312;2023-02-10T10:08:22;35.78;;;22.48;;
787;SDS011;16074;42.708;23.312;2023-02-10T10:10:55;31.25;;;23.15;;
787;SDS011;16074;42.708;23.312;2023-02-10T10:13:28;30.13;;;21.42;;
787;SDS011;16074;42.708;23.312;2023-02-10T10:16:04;35.17;;;24.10;;
787;SDS011;16074;42.708;23.312;2023-02-10T10:18:43;36.15;;;23.67;;
787;SDS011;16074;42.708;23.312;2023-02-10T10:21:22;34.60;;;24.85;;
787;SDS011;16074;42.708;23.312;2023-02-10T10:24:00;32.88;;;22.35;;
787;SDS011;16074;42.708;23.312;2023-02-10T10:26:40;30.60;;;23.52;;
787;SDS011;16074;42.708;23.312;2023-02-10T10:29:19;31.88;;;22.92;;
787;SDS011;16074;42.708;23.312;2023-02-10T10:31:53;22.70;;;20.25;;
787;SDS011;16074;42.708;23.312;2023-02-10T10:34:36;27.85;;;20.33;;
787;SDS011;16074;42.708;23.312;2023-02-10T10:37:11;28.63;;;23.48;;
787;SDS011;16074;42.708;23.312;2023-02-10T10:39:44;26.92;;;22.63;;
787;SDS011;16074;42.708;23.312;2023-02-10T10:42:17;30.40;;;20.73;;
787;SDS011;16074;42.708;23.312;2023-02-10T10:44:50;28.42;;;22.60;;
787;SDS011;16074;42.708;23.312;2023-02-10T10:47:29;27.17;;;19.17;;
787;SDS011;16074;42.708;23.312;2023-02-10T10:50:04;25.55;;;19.67;;
787;SDS011;16074;42.708;23.312;2023-02-10T10:52:34;26.15;;;19.27;;
787;SDS011;16074;42.708;23.312;2023-02-10T10:55:06;25.40;;;19.35;;
787;SDS011;16074;42.708;23.312;2023-02-10T10:57:42;26.17;;;20.48;;
787;SDS011;16074;42.708;23.312;2023-02-10T11:00:15;25.75;;;20.52;;
787;SDS011;16074;42.708;23.312;2023-02-10T11:02:52;28.63;;;21.00;;
787;SDS011;16074;42.708;23.312;2023-02-10T11:05:22;29.60;;;23.92;;
787;SDS011;16074;42.708;23.312;2023-02-10T11:07:57;30.13;;;22.45;;
787;SDS011;16074;42.708;23.312;2023-02-10T11:10:28;28.48;;;22.30;;
787;SDS011;16074;42.708;23.312;2023-02-10T11:13:00;28.35;;;21.45;;
787;SDS011;16074;42.708;23.312;2023-02-10T11:15:37;24.92;;;19.70;;
787;SDS011;16074;42.708;23.312;2023-02-10T11:18:12;22.88;;;17.65;;
787;SDS011;16074;42.708;23.312;2023-02-10T11:20:51;22.83;;;16.77;;
787;SDS011;16074;42.708;23.312;2023-02-10T11:23:23;25.70;;;19.98;;
787;SDS011;16074;42.708;23.312;2023-02-10T11:25:57;23.67;;;17.77;;
787;SDS011;16074;42.708;23.312;2023-02-10T11:28:29;21.98;;;18.65;;
787;SDS011;16074;42.708;23.312;2023-02-10T11:31:00;21.15;;;18.05;;
787;SDS011;16074;42.708;23.312;2023-02-10T11:33:31;18.88;;;16.83;;
787;SDS011;16074;42.708;23.312;2023-02-10T11:36:03;22.23;;;17.83;;
787;SDS011;16074;42.708;23.312;2023-02-10T11:38:35;22.30;;;18.30;;
787;SDS011;16074;42.708;23.312;2023-02-10T11:41:04;21.38;;;17.20;;
787;SDS011;16074;42.708;23.312;2023-02-10T11:43:36;20.38;;;15.98;;
787;SDS011;16074;42.708;23.312;2023-02-10T11:46:16;21.42;;;16.33;;
787;SDS011;16074;42.708;23.312;2023-02-10T11:48:51;26.45;;;17.88;;
787;SDS011;16074;42.708;23.312;2023-02-10T11:51:21;22.50;;;19.15;;
787;SDS011;16074;42.708;23.312;2023-02-10T11:53:52;24.02;;;18.30;;
787;SDS011;16074;42.708;23.312;2023-02-10T11:56:22;19.50;;;16.30;;
787;SDS011;16074;42.708;23.312;2023-02-10T11:59:08;20.55;;;17.30;;
787;SDS011;16074;42.708;23.312;2023-02-10T12:01:48;22.73;;;18.23;;
787;SDS011;16074;42.708;23.312;2023-02-10T12:04:35;19.90;;;16.90;;
787;SDS011;16074;42.708;23.312;2023-02-10T12:07:16;19.60;;;17.55;;
787;SDS011;16074;42.708;23.312;2023-02-10T12:09:54;27.77;;;21.92;;
787;SDS011;16074;42.708;23.312;2023-02-10T12:12:29;24.77;;;20.58;;
787;SDS011;16074;42.708;23.312;2023-02-10T12:15:12;25.88;;;20.02;;
787;SDS011;16074;42.708;23.312;2023-02-10T12:17:51;29.23;;;21.70;;
787;SDS011;16074;42.708;23.312;2023-02-10T12:20:38;29.75;;;21.08;;
787;SDS011;16074;42.708;23.312;2023-02-10T12:23:17;31.33;;;22.70;;
787;SDS011;16074;42.708;23.312;2023-02-10T12:26:04;27.83;;;20.30;;
787;SDS011;16074;42.708;23.312;2023-02-10T12:28:41;25.13;;;20.13;;
787;SDS011;16074;42.708;23.312;2023-02-10T12:31:21;25.50;;;21.45;;
787;SDS011;16074;42.708;23.312;2023-02-10T12:34:06;27.75;;;22.65;;
787;SDS011;16074;42.708;23.312;2023-02-10T12:36:47;27.90;;;20.83;;
787;SDS011;16074;42.708;23.312;2023-02-10T12:39:26;30.55;;;21.30;;
787;SDS011;16074;42.708;23.312;2023-02-10T12:42:08;28.02;;;22.52;;
787;SDS011;16074;42.708;23.312;2023-02-10T12:44:53;26.98;;;22.27;;
787;SDS011;16074;42.708;23.312;2023-02-10T12:47:32;24.45;;;19.50;;
787;SDS011;16074;42.708;23.312;2023-02-10T12:50:16;23.98;;;20.98;;
787;SDS011;16074;42.708;23.312;2023-02-10T12:53:03;24.50;;;19.42;;
787;SDS011;16074;42.708;23.312;2023-02-10T12:55:38;26.25;;;20.95;;
787;SDS011;16074;42.708;23.312;2023-02-10T12:58:19;27.20;;;23.30;;
787;SDS011;16074;42.708;23.312;2023-02-10T13:00:53;29.08;;;21.63;;
787;SDS011;16074;42.708;23.312;2023-02-10T13:03:32;25.27;;;21.02;;
787;SDS011;16074;42.708;23.312;2023-02-10T13:06:11;25.48;;;21.67;;
787;SDS011;16074;42.708;23.312;2023-02-10T13:08:49;27.27;;;23.48;;
787;SDS011;16074;42.708;23.312;2023-02-10T13:11:25;26.73;;;21.95;;
787;SDS011;16074;42.708;23.312;2023-02-10T13:14:05;25.05;;;22.25;;
787;SDS011;16074;42.708;23.312;2023-02-10T13:16:39;31.98;;;21.40;;
787;SDS011;16074;42.708;23.312;2023-02-10T13:19:12;31.77;;;22.27;;
787;SDS011;16074;42.708;23.312;2023-02-10T13:21:52;32.58;;;22.98;;
787;SDS011;16074;42.708;23.312;2023-02-10T13:24:28;24.77;;;20.70;;
787;SDS011;16074;42.708;23.312;2023-02-10T13:27:19;26.88;;;23.52;;
787;SDS011;16074;42.708;23.312;2023-02-10T13:29:58;26.55;;;21.88;;
787;SDS011;16074;42.708;23.312;2023-02-10T13:32:43;27.23;;;22.73;;
787;SDS011;16074;42.708;23.312;2023-02-10T13:35:19;22.33;;;19.90;;
787;SDS011;16074;42.708;23.312;2023-02-10T13:37:52;26.13;;;22.20;;
787;SDS011;16074;42.708;23.312;2023-02-10T13:40:24;25.50;;;20.52;;
787;SDS011;16074;42.708;23.312;2023-02-10T13:42:54;26.67;;;21.45;;
787;SDS011;16074;42.708;23.312;2023-02-10T13:45:26;29.08;;;22.25;;
787;SDS011;16074;42.708;23.312;2023-02-10T13:47:57;24.58;;;20.77;;
787;SDS011;16074;42.708;23.312;2023-02-10T13:50:28;27.63;;;21.92;;
787;SDS011;16074;42.708;23.312;2023-02-10T13:52:59;28.48;;;20.70;;
787;SDS011;16074;42.708;23.312;2023-02-10T13:55:41;24.20;;;21.77;;
787;SDS011;16074;42.708;23.312;2023-02-10T13:58:25;26.40;;;21.15;;
787;SDS011;16074;42.708;23.312;2023-02-10T14:00:58;27.17;;;19.52;;
787;SDS011;16074;42.708;23.312;2023-02-10T14:03:28;27.15;;;20.02;;
787;SDS011;16074;42.708;23.312;2023-02-10T14:05:58;24.75;;;20.90;;
787;SDS011;16074;42.708;23.312;2023-02-10T14:08:34;24.75;;;18.40;;
787;SDS011;16074;42.708;23.312;2023-02-10T14:11:25;21.08;;;18.25;;
787;SDS011;16074;42.708;23.312;2023-02-10T14:14:15;25.85;;;19.90;;
787;SDS011;16074;42.708;23.312;2023-02-10T14:16:48;22.83;;;19.45;;
787;SDS011;16074;42.708;23.312;2023-02-10T14:19:19;25.10;;;18.27;;
787;SDS011;16074;42.708;23.312;2023-02-10T14:21:50;24.27;;;19.67;;
787;SDS011;16074;42.708;23.312;2023-02-10T14:24:22;29.10;;;20.25;;
787;SDS011;16074;42.708;23.312;2023-02-10T14:27:10;26.45;;;22.30;;
787;SDS011;16074;42.708;23.312;2023-02-10T14:29:44;26.73;;;22.25;;
787;SDS011;16074;42.708;23.312;2023-02-10T14:32:17;29.05;;;20.42;;
787;SDS011;16074;42.708;23.312;2023-02-10T14:34:53;23.88;;;19.73;;
787;SDS011;16074;42.708;23.312;2023-02-10T14:37:23;27.13;;;21.15;;
787;SDS011;16074;42.708;23.312;2023-02-10T14:39:52;24.65;;;19.30;;
787;SDS011;16074;42.708;23.312;2023-02-10T14:42:22;18.88;;;15.13;;
787;SDS011;16074;42.708;23.312;2023-02-10T14:44:53;21.33;;;15.68;;
787;SDS011;16074;42.708;23.312;2023-02-10T14:47:26;23.70;;;19.90;;
787;SDS011;16074;42.708;23.312;2023-02-10T14:49:58;24.02;;;17.73;;
787;SDS011;16074;42.708;23.312;2023-02-10T14:52:27;21.27;;;17.20;;
787;SDS011;16074;42.708;23.312;2023-02-10T14:57:56;24.02;;;17.35;;
787;SDS011;16074;42.708;23.312;2023-02-10T15:00:31;23.33;;;17.05;;
787;SDS011;16074;42.708;23.312;2023-02-10T15:03:02;18.63;;;15.43;;
787;SDS011;16074;42.708;23.312;2023-02-10T15:05:31;22.27;;;16.60;;